Time;durP1;ratioP1;P1;durP2;ratioP2;P2;SDS_P1;SDS_P2;PMS_P1;PMS_P2;Temp;Humidity;BMP_temperature;BMP_pressure;BME280_temperature;BME280_humidity;BME280_pressure;Samples;Min_cycle;Max_cycle;Signal;HPM_P1;HPM_P2
2021/12/05 00:19:38;;;;;;;39.50;19.88;;;;;;;;;;10515182;28;20422;-66
2021/12/05 00:24:44;;;;;;;35.88;18.05;;;;;;;;;;10515035;28;20275;-66
2021/12/05 00:30:06;;;;;;;36.13;19.13;;;;;;;;;;10516105;28;20291;-66
2021/12/05 00:35:49;;;;;;;38.00;19.48;;;;;;;;;;10486826;28;20209;-66
2021/12/05 00:52:06;;;;;;;34.17;19.00;;;;;;;;;;10496434;28;20188;-66
2021/12/05 01:02:33;;;;;;;37.10;19.00;;;;;;;;;;10521165;28;20221;-66
2021/12/05 01:13:14;;;;;;;33.15;18.65;;;;;;;;;;10522985;28;20182;-66
2021/12/05 01:18:16;;;;;;;32.95;17.58;;;;;;;;;;10490267;28;20221;-65
2021/12/05 01:29:32;;;;;;;34.28;18.88;;;;;;;;;;10522601;28;20197;-65
2021/12/05 02:42:31;;;;;;;30.25;17.23;;;;;;;;;;10458392;28;20674;-66
2021/12/05 02:47:37;;;;;;;31.92;18.00;;;;;;;;;;10450894;28;20225;-65
2021/12/05 02:52:41;;;;;;;26.35;16.95;;;;;;;;;;10448744;28;20261;-66
2021/12/05 02:57:53;;;;;;;28.85;17.10;;;;;;;;;;10446455;28;20216;-66
2021/12/05 03:02:55;;;;;;;28.92;16.45;;;;;;;;;;10447740;28;20248;-66
2021/12/05 03:08:01;;;;;;;27.75;17.05;;;;;;;;;;10452490;28;20181;-66
2021/12/05 03:13:04;;;;;;;27.15;15.77;;;;;;;;;;10450031;28;20221;-66
2021/12/05 03:18:05;;;;;;;26.58;15.88;;;;;;;;;;10464402;28;20225;-67
2021/12/05 03:23:07;;;;;;;26.27;15.70;;;;;;;;;;10453718;28;20194;-66
2021/12/05 03:28:08;;;;;;;24.25;15.77;;;;;;;;;;10448109;28;20175;-66
2021/12/05 03:33:10;;;;;;;16.90;12.15;;;;;;;;;;10449680;28;20238;-66
2021/12/05 03:38:11;;;;;;;13.98;10.15;;;;;;;;;;10459142;28;20209;-66
2021/12/05 03:43:15;;;;;;;13.35;8.98;;;;;;;;;;10505169;28;20227;-67
2021/12/05 03:48:17;;;;;;;13.18;9.32;;;;;;;;;;10519060;28;20219;-66
2021/12/05 03:53:19;;;;;;;10.35;8.90;;;;;;;;;;10490929;28;20191;-66
2021/12/05 03:58:20;;;;;;;11.40;9.45;;;;;;;;;;10518695;28;20209;-66
2021/12/05 04:03:22;;;;;;;11.55;9.55;;;;;;;;;;10499494;28;20225;-66
2021/12/05 04:08:26;;;;;;;11.50;9.52;;;;;;;;;;10517579;28;20181;-66
2021/12/05 04:13:28;;;;;;;14.88;10.23;;;;;;;;;;10502783;28;20200;-66
2021/12/05 04:18:29;;;;;;;19.20;11.05;;;;;;;;;;10524927;28;20224;-66
2021/12/05 04:23:33;;;;;;;15.80;11.35;;;;;;;;;;10516160;28;20181;-66
2021/12/05 04:28:35;;;;;;;19.35;11.85;;;;;;;;;;10520255;28;20874;-66
2021/12/05 04:33:37;;;;;;;17.60;12.43;;;;;;;;;;10507230;28;20212;-65
2021/12/05 04:38:38;;;;;;;18.40;12.43;;;;;;;;;;10501322;28;20221;-66
2021/12/05 04:43:41;;;;;;;16.00;12.30;;;;;;;;;;10520287;28;20176;-66
2021/12/05 04:48:47;;;;;;;19.80;13.65;;;;;;;;;;10509526;28;20342;-66
2021/12/05 04:53:49;;;;;;;17.83;12.77;;;;;;;;;;10513966;28;20173;-66
2021/12/05 04:58:53;;;;;;;18.58;13.63;;;;;;;;;;10520258;28;20721;-66
2021/12/05 05:04:00;;;;;;;21.00;13.82;;;;;;;;;;10521774;28;20833;-66
2021/12/05 05:09:01;;;;;;;23.98;14.82;;;;;;;;;;10524086;28;20239;-66
2021/12/05 05:14:02;;;;;;;20.80;14.25;;;;;;;;;;10493044;28;20180;-66
2021/12/05 05:19:04;;;;;;;23.35;14.57;;;;;;;;;;10522918;28;20978;-66
2021/12/05 05:24:46;;;;;;;20.35;14.23;;;;;;;;;;10523561;28;20220;-66
2021/12/05 05:30:19;;;;;;;22.08;15.15;;;;;;;;;;10522451;28;20686;-66
2021/12/05 05:46:13;;;;;;;20.67;14.10;;;;;;;;;;10478428;28;20225;-64
2021/12/05 05:51:15;;;;;;;19.13;14.10;;;;;;;;;;10476394;28;20178;-64
2021/12/05 05:56:21;;;;;;;22.67;15.20;;;;;;;;;;10478058;28;20569;-64
2021/12/05 06:01:44;;;;;;;22.45;14.88;;;;;;;;;;10477758;28;20268;-66
2021/12/05 06:06:43;;;;;;;22.13;15.23;;;;;;;;;;10467758;28;20198;-66
2021/12/05 06:11:44;;;;;;;21.20;14.18;;;;;;;;;;10476507;28;20356;-66
2021/12/05 06:16:45;;;;;;;19.02;14.20;;;;;;;;;;10471550;28;20895;-66
2021/12/05 06:21:46;;;;;;;23.33;14.27;;;;;;;;;;10477952;28;20232;-66
2021/12/05 06:26:48;;;;;;;20.85;13.13;;;;;;;;;;10479727;28;20284;-66
2021/12/05 06:47:29;;;;;;;18.20;13.00;;;;;;;;;;10476465;28;20218;-66
2021/12/05 06:52:31;;;;;;;15.88;12.05;;;;;;;;;;10477212;28;20584;-66
2021/12/05 06:57:32;;;;;;;16.30;11.43;;;;;;;;;;10477961;28;20205;-66
2021/12/05 07:02:33;;;;;;;19.33;11.98;;;;;;;;;;10479225;28;20553;-66
2021/12/05 07:07:37;;;;;;;16.17;11.50;;;;;;;;;;10449666;28;20580;-66
2021/12/05 07:44:44;;;;;;;20.05;12.40;;;;;;;;;;10515990;28;20192;-66
2021/12/05 07:49:47;;;;;;;18.48;12.23;;;;;;;;;;10516507;28;20213;-66
2021/12/05 07:54:56;;;;;;;18.33;11.75;;;;;;;;;;10518590;28;20181;-65
2021/12/05 08:00:21;;;;;;;20.33;12.73;;;;;;;;;;10518492;28;20229;-66
2021/12/05 08:16:28;;;;;;;16.98;12.05;;;;;;;;;;10501834;28;20225;-66
2021/12/05 08:21:29;;;;;;;15.38;11.68;;;;;;;;;;10490421;28;20662;-66
2021/12/05 08:26:33;;;;;;;15.73;10.95;;;;;;;;;;10518615;28;20682;-66
2021/12/05 09:30:28;;;;;;;22.70;12.65;;;;;;;;;;10497626;28;21040;-66
2021/12/05 10:06:54;;;;;;;22.90;13.93;;;;;;;;;;10521591;28;20639;-66
2021/12/05 10:12:17;;;;;;;15.65;11.63;;;;;;;;;;10499991;28;20186;-67
2021/12/05 10:34:02;;;;;;;31.20;19.42;;;;;;;;;;10516531;28;20286;-66
2021/12/05 10:39:10;;;;;;;9.63;7.32;;;;;;;;;;10508860;28;20686;-66
2021/12/05 10:44:12;;;;;;;11.00;7.35;;;;;;;;;;10521551;28;20193;-66
2021/12/05 10:49:14;;;;;;;13.25;7.53;;;;;;;;;;10517447;28;20241;-66
2021/12/05 10:54:17;;;;;;;9.93;7.13;;;;;;;;;;10520677;28;20186;-65
2021/12/05 10:59:20;;;;;;;8.70;6.30;;;;;;;;;;10519758;28;21331;-67
2021/12/05 11:04:26;;;;;;;7.47;6.03;;;;;;;;;;10472387;28;20639;-66
2021/12/05 11:09:34;;;;;;;7.30;4.72;;;;;;;;;;10516092;28;20249;-66
2021/12/05 11:14:37;;;;;;;6.32;5.72;;;;;;;;;;10520601;28;20280;-66
2021/12/05 11:19:43;;;;;;;11.30;6.53;;;;;;;;;;10500733;28;20210;-66
2021/12/05 11:24:46;;;;;;;7.70;6.40;;;;;;;;;;10516356;28;20535;-67
2021/12/05 11:29:51;;;;;;;7.20;6.65;;;;;;;;;;10518553;28;20239;-66
2021/12/05 11:34:52;;;;;;;9.20;6.32;;;;;;;;;;10516522;28;20220;-66
2021/12/05 11:40:01;;;;;;;6.38;5.88;;;;;;;;;;10517835;28;20209;-66
2021/12/05 11:45:04;;;;;;;7.07;5.72;;;;;;;;;;10500895;28;20189;-66
2021/12/05 11:50:06;;;;;;;6.53;5.55;;;;;;;;;;10515947;28;20834;-66
2021/12/05 11:55:19;;;;;;;8.48;6.03;;;;;;;;;;10510199;28;20197;-65
2021/12/05 12:00:21;;;;;;;8.18;5.95;;;;;;;;;;10508097;28;20192;-66
2021/12/05 12:05:25;;;;;;;5.53;5.03;;;;;;;;;;10511702;28;21145;-66
2021/12/05 12:10:35;;;;;;;4.97;4.50;;;;;;;;;;10518121;28;20195;-66
2021/12/05 12:15:37;;;;;;;7.55;4.50;;;;;;;;;;10516757;28;20200;-66
2021/12/05 12:20:39;;;;;;;5.30;3.60;;;;;;;;;;10515718;28;20576;-66
2021/12/05 12:25:40;;;;;;;3.83;3.53;;;;;;;;;;10516066;28;21118;-67
2021/12/05 12:30:43;;;;;;;5.07;3.97;;;;;;;;;;10514954;28;20870;-66
2021/12/05 12:35:45;;;;;;;8.25;6.60;;;;;;;;;;10516194;28;20690;-66
2021/12/05 12:40:58;;;;;;;4.75;3.85;;;;;;;;;;10519492;28;20186;-66
2021/12/05 12:46:14;;;;;;;4.43;2.85;;;;;;;;;;10519111;28;20228;-66
2021/12/05 12:51:33;;;;;;;4.13;3.67;;;;;;;;;;10519612;28;20176;-66
2021/12/05 12:56:35;;;;;;;5.00;3.38;;;;;;;;;;10520201;28;20211;-66
2021/12/05 13:09:59;;;;;;;5.63;3.33;;;;;;;;;;10523044;28;20197;-66
2021/12/05 13:12:41;;;;;;;3.97;2.50;;;;;;;;;;10521567;28;20185;-66
2021/12/05 13:17:51;;;;;;;5.13;2.05;;;;;;;;;;10521615;28;20213;-66
2021/12/05 13:22:58;;;;;;;4.53;2.35;;;;;;;;;;10518679;28;20787;-67
2021/12/05 13:28:19;;;;;;;6.25;2.20;;;;;;;;;;10521687;28;20189;-66
2021/12/05 13:33:22;;;;;;;3.20;1.25;;;;;;;;;;10519395;28;20228;-66
2021/12/05 13:43:30;;;;;;;5.15;2.00;;;;;;;;;;10526372;27;20298;-66
2021/12/05 13:48:33;;;;;;;3.60;2.20;;;;;;;;;;10480172;27;20219;-66
2021/12/05 13:53:35;;;;;;;6.43;3.55;;;;;;;;;;10420032;28;20690;-66
2021/12/05 13:58:40;;;;;;;6.43;4.00;;;;;;;;;;10429325;28;20290;-66
2021/12/05 14:03:44;;;;;;;5.65;4.13;;;;;;;;;;10421461;28;20218;-66
2021/12/05 14:08:45;;;;;;;6.00;4.65;;;;;;;;;;10425274;28;20194;-66
2021/12/05 14:13:46;;;;;;;10.25;5.30;;;;;;;;;;10428937;28;20186;-66
2021/12/05 14:18:47;;;;;;;9.20;5.50;;;;;;;;;;10406502;28;20226;-66
2021/12/05 14:23:49;;;;;;;8.73;6.28;;;;;;;;;;10393419;28;20179;-66
2021/12/05 14:29:09;;;;;;;6.32;5.43;;;;;;;;;;10398676;28;20661;-66
2021/12/05 14:34:10;;;;;;;11.30;6.30;;;;;;;;;;10449035;28;20225;-66
2021/12/05 14:39:14;;;;;;;9.60;7.07;;;;;;;;;;10454072;28;20280;-66
2021/12/05 14:44:16;;;;;;;13.25;7.15;;;;;;;;;;10458441;28;20218;-66
2021/12/05 14:49:17;;;;;;;17.92;10.38;;;;;;;;;;10461085;28;20222;-66
2021/12/05 14:54:19;;;;;;;18.80;11.63;;;;;;;;;;10427142;28;20191;-66
2021/12/05 14:59:21;;;;;;;20.05;14.07;;;;;;;;;;10438925;28;20222;-66
2021/12/05 15:04:24;;;;;;;22.20;15.02;;;;;;;;;;10434513;28;20214;-66
2021/12/05 15:09:25;;;;;;;27.67;16.80;;;;;;;;;;10436285;28;20217;-66
2021/12/05 15:14:27;;;;;;;25.25;16.02;;;;;;;;;;10434094;28;20217;-65
2021/12/05 15:19:28;;;;;;;28.02;16.63;;;;;;;;;;10436880;28;20246;-66
2021/12/05 15:24:30;;;;;;;27.42;18.25;;;;;;;;;;10433779;28;20198;-66
2021/12/05 15:29:31;;;;;;;32.22;19.50;;;;;;;;;;10437850;28;20237;-65
2021/12/05 15:34:34;;;;;;;27.75;17.83;;;;;;;;;;10436186;28;20221;-65
2021/12/05 15:39:37;;;;;;;36.42;18.65;;;;;;;;;;10435044;28;20210;-66
2021/12/05 15:44:42;;;;;;;37.33;19.42;;;;;;;;;;10427563;28;20974;-65
2021/12/05 15:49:44;;;;;;;33.72;19.10;;;;;;;;;;10433808;28;20688;-65
2021/12/05 15:54:45;;;;;;;39.25;21.10;;;;;;;;;;10435479;28;20199;-66
2021/12/05 15:59:47;;;;;;;32.60;18.40;;;;;;;;;;10429078;28;20215;-66
2021/12/05 16:04:49;;;;;;;37.13;19.08;;;;;;;;;;10436055;28;20221;-65
2021/12/05 16:09:50;;;;;;;36.05;18.17;;;;;;;;;;10437954;28;20270;-66
2021/12/05 16:14:56;;;;;;;32.30;17.60;;;;;;;;;;10438708;28;20213;-65
2021/12/05 16:20:10;;;;;;;33.38;18.13;;;;;;;;;;10438367;28;20226;-65
2021/12/05 16:25:18;;;;;;;44.72;22.88;;;;;;;;;;10440039;28;20183;-64
2021/12/05 16:30:20;;;;;;;50.35;23.83;;;;;;;;;;10428223;28;20182;-66
2021/12/05 16:35:33;;;;;;;44.42;22.45;;;;;;;;;;10432864;28;20187;-66
2021/12/05 16:40:51;;;;;;;41.80;21.27;;;;;;;;;;10428918;28;20309;-66
2021/12/05 16:45:56;;;;;;;46.80;22.00;;;;;;;;;;10426789;28;20219;-65
2021/12/05 16:51:18;;;;;;;42.17;21.15;;;;;;;;;;10417493;28;20191;-66
2021/12/05 16:56:39;;;;;;;44.80;22.23;;;;;;;;;;10424052;28;20195;-65
2021/12/05 17:01:40;;;;;;;39.92;22.20;;;;;;;;;;10426008;28;20225;-64
2021/12/05 17:06:46;;;;;;;52.22;28.70;;;;;;;;;;10421569;28;20183;-66
2021/12/05 17:11:47;;;;;;;53.20;26.92;;;;;;;;;;10425294;28;20239;-66
2021/12/05 17:17:26;;;;;;;41.28;22.92;;;;;;;;;;10430057;28;20218;-64
2021/12/05 17:22:27;;;;;;;55.03;22.45;;;;;;;;;;10427396;28;20206;-65
2021/12/05 17:27:29;;;;;;;52.97;23.98;;;;;;;;;;10432304;28;20270;-65
2021/12/05 17:32:35;;;;;;;47.10;20.67;;;;;;;;;;10433044;28;20271;-65
2021/12/05 17:37:36;;;;;;;48.15;20.05;;;;;;;;;;10433350;28;20175;-66
2021/12/05 17:42:38;;;;;;;36.70;18.20;;;;;;;;;;10426552;28;20218;-65
2021/12/05 17:47:40;;;;;;;40.80;18.60;;;;;;;;;;10417870;28;20238;-64
2021/12/05 17:52:42;;;;;;;44.75;18.75;;;;;;;;;;10435643;28;20315;-64
2021/12/05 17:57:49;;;;;;;49.03;18.77;;;;;;;;;;10417505;28;20191;-65
2021/12/05 18:02:53;;;;;;;54.67;19.35;;;;;;;;;;10429809;28;20233;-65
2021/12/05 18:07:56;;;;;;;45.75;19.08;;;;;;;;;;10426896;28;20187;-65
2021/12/05 18:13:00;;;;;;;51.88;19.00;;;;;;;;;;10426909;28;20178;-65
2021/12/05 18:18:01;;;;;;;50.20;19.05;;;;;;;;;;10429765;28;20785;-65
2021/12/05 18:23:05;;;;;;;44.45;18.40;;;;;;;;;;10431272;28;20202;-65
2021/12/05 18:28:06;;;;;;;58.90;20.17;;;;;;;;;;10434803;28;20218;-65
2021/12/05 18:33:08;;;;;;;49.92;20.08;;;;;;;;;;10440333;28;20218;-65
2021/12/05 18:38:11;;;;;;;40.85;17.70;;;;;;;;;;10442889;28;20605;-65
2021/12/05 18:43:12;;;;;;;31.88;15.40;;;;;;;;;;10441812;28;20292;-66
2021/12/05 18:48:14;;;;;;;32.85;15.05;;;;;;;;;;10439565;28;20305;-67
2021/12/05 18:53:16;;;;;;;35.70;16.27;;;;;;;;;;10438399;28;20171;-65
2021/12/05 18:58:21;;;;;;;34.38;16.02;;;;;;;;;;10430746;28;20191;-65
2021/12/05 19:14:13;;;;;;;37.80;16.23;;;;;;;;;;10429640;28;20188;-66
2021/12/05 19:19:15;;;;;;;46.20;18.13;;;;;;;;;;10434134;28;20253;-65
2021/12/05 19:24:17;;;;;;;43.08;17.65;;;;;;;;;;10430024;28;20171;-66
2021/12/05 19:29:20;;;;;;;48.38;17.40;;;;;;;;;;10427746;28;20198;-66
2021/12/05 19:34:21;;;;;;;47.70;17.17;;;;;;;;;;10428204;28;20219;-66
2021/12/05 19:39:24;;;;;;;43.03;16.73;;;;;;;;;;10429243;28;20223;-66
2021/12/05 19:44:26;;;;;;;49.15;17.30;;;;;;;;;;10434530;28;20737;-66
2021/12/05 19:49:30;;;;;;;50.20;18.73;;;;;;;;;;10426392;28;20257;-66
2021/12/05 19:54:31;;;;;;;59.20;19.42;;;;;;;;;;10430512;28;20763;-67
2021/12/05 19:59:32;;;;;;;64.13;20.65;;;;;;;;;;10429536;28;20272;-66
2021/12/05 20:04:34;;;;;;;53.55;19.88;;;;;;;;;;10422631;28;20588;-66
2021/12/05 20:09:35;;;;;;;56.30;18.40;;;;;;;;;;10430242;28;20175;-66
2021/12/05 20:14:36;;;;;;;51.97;18.88;;;;;;;;;;10429286;28;20191;-66
2021/12/05 20:31:52;;;;;;;32.72;14.77;;;;;;;;;;10425740;28;20223;-66
2021/12/05 20:36:54;;;;;;;37.92;15.60;;;;;;;;;;10432555;28;20190;-66
2021/12/05 20:41:55;;;;;;;19.83;12.25;;;;;;;;;;10489462;28;20214;-66
2021/12/05 20:46:57;;;;;;;31.13;15.55;;;;;;;;;;10483800;28;20737;-66
2021/12/05 20:52:00;;;;;;;27.60;15.20;;;;;;;;;;10472582;28;20362;-67
2021/12/05 20:57:02;;;;;;;24.02;12.40;;;;;;;;;;10489181;28;20221;-66
2021/12/05 21:02:03;;;;;;;30.63;15.13;;;;;;;;;;10489424;28;20218;-66
2021/12/05 21:07:08;;;;;;;27.23;12.50;;;;;;;;;;10477331;28;20239;-66
2021/12/05 21:12:10;;;;;;;27.05;13.77;;;;;;;;;;10491086;28;20181;-66
2021/12/05 21:17:11;;;;;;;39.80;15.50;;;;;;;;;;10487601;28;20716;-66
2021/12/05 21:22:12;;;;;;;39.85;18.85;;;;;;;;;;10492531;28;20214;-66
2021/12/05 21:27:13;;;;;;;55.28;20.17;;;;;;;;;;10491726;28;20178;-66
2021/12/05 21:32:14;;;;;;;51.28;21.60;;;;;;;;;;10495686;28;20206;-66
2021/12/05 21:37:16;;;;;;;54.63;22.35;;;;;;;;;;10489259;28;20170;-66
2021/12/05 21:42:17;;;;;;;55.65;22.02;;;;;;;;;;10492440;28;20702;-66
2021/12/05 21:47:18;;;;;;;59.83;22.80;;;;;;;;;;10490689;28;20218;-67
2021/12/05 21:52:20;;;;;;;55.28;21.95;;;;;;;;;;10492773;28;20190;-66
2021/12/05 21:57:21;;;;;;;61.38;26.90;;;;;;;;;;10489312;28;20181;-66
2021/12/05 22:02:22;;;;;;;59.33;26.08;;;;;;;;;;10493934;28;20233;-66
2021/12/05 22:07:23;;;;;;;59.20;24.88;;;;;;;;;;10497995;28;20221;-67
2021/12/05 22:12:24;;;;;;;68.45;27.67;;;;;;;;;;10488631;28;20189;-67
2021/12/05 22:17:25;;;;;;;74.88;27.65;;;;;;;;;;10491245;28;20234;-66
2021/12/05 22:22:26;;;;;;;69.97;27.38;;;;;;;;;;10499575;28;20201;-66
2021/12/05 22:27:28;;;;;;;73.63;28.00;;;;;;;;;;10502718;28;20174;-66
2021/12/05 22:32:29;;;;;;;66.28;27.00;;;;;;;;;;10502417;28;20205;-66
2021/12/05 22:37:30;;;;;;;60.47;26.20;;;;;;;;;;10499401;28;20189;-66
2021/12/05 22:42:31;;;;;;;60.00;26.08;;;;;;;;;;10500199;28;20217;-66
2021/12/05 22:47:32;;;;;;;64.53;26.58;;;;;;;;;;10494745;28;20290;-65
2021/12/05 22:52:34;;;;;;;66.45;27.65;;;;;;;;;;10502710;28;20597;-65
2021/12/05 22:57:35;;;;;;;58.78;26.73;;;;;;;;;;10498546;28;20220;-64
2021/12/05 23:02:40;;;;;;;62.95;27.75;;;;;;;;;;10499342;28;20390;-64
2021/12/05 23:07:41;;;;;;;64.53;26.88;;;;;;;;;;10496070;28;20170;-64
2021/12/05 23:12:42;;;;;;;65.65;25.95;;;;;;;;;;10481104;28;20824;-64
2021/12/05 23:17:43;;;;;;;71.75;27.13;;;;;;;;;;10499262;28;20214;-64
2021/12/05 23:22:44;;;;;;;81.90;29.65;;;;;;;;;;10499575;28;20285;-66
2021/12/05 23:27:46;;;;;;;81.43;30.02;;;;;;;;;;10496735;28;20174;-64
2021/12/05 23:32:48;;;;;;;92.63;29.52;;;;;;;;;;10504739;28;20581;-65
2021/12/05 23:37:52;;;;;;;85.60;28.80;;;;;;;;;;10496897;28;20181;-65
2021/12/05 23:42:53;;;;;;;81.80;27.73;;;;;;;;;;10497129;28;20762;-65
2021/12/05 23:47:55;;;;;;;79.57;28.08;;;;;;;;;;10498462;28;20296;-65
2021/12/05 23:52:56;;;;;;;64.35;26.38;;;;;;;;;;10500796;28;20201;-65
2021/12/05 23:57:58;;;;;;;63.95;27.35;;;;;;;;;;10499059;28;20174;-66
